Winton Post Office, Australia
Current Conditions -  °F | °C
As of 12:17 AM on Sunday 23 Nov 2014 (Local Time) from YLRE Reporting Station
Overcast Overcast  
Wind Chill: 79°   Ceiling: 7000
Heat Index: 81°   Visibility: 6mi
Dew Point: 64°   Wind: 20mph
Humidity: 61%   Direction: 150°SSE
Pressure: 29.88"   Gusts: 31mph
Location:  22.38°S, 143.03°E
Report Text: YLRE 221417Z AUTO 15017G27KT 9999 // SCT041 BKN070 OVC115 26/18 Q1012
Loading
Personal Weather Stations






























Interactive Weather Map New forecast layout! Learn more

10-Day Weather Forecast

Advertisements
Track Severe Weather on mobile